sensor_id;sensor_type;location;lat;lon;timestamp;temperature;humidity
4376;DHT22;2202;50.866;12.750;2023-11-19T00:01:46;4.20;97.10
4376;DHT22;2202;50.866;12.750;2023-11-19T00:04:13;4.10;97.00
4376;DHT22;2202;50.866;12.750;2023-11-19T00:06:40;4.10;97.20
4376;DHT22;2202;50.866;12.750;2023-11-19T00:09:07;4.20;97.00
4376;DHT22;2202;50.866;12.750;2023-11-19T00:11:34;4.20;97.10
4376;DHT22;2202;50.866;12.750;2023-11-19T00:14:01;4.20;96.90
4376;DHT22;2202;50.866;12.750;2023-11-19T00:16:29;4.20;96.90
4376;DHT22;2202;50.866;12.750;2023-11-19T00:18:59;4.30;96.90
4376;DHT22;2202;50.866;12.750;2023-11-19T00:21:25;4.30;96.80
4376;DHT22;2202;50.866;12.750;2023-11-19T00:23:54;4.30;96.90
4376;DHT22;2202;50.866;12.750;2023-11-19T00:26:21;4.30;96.80
4376;DHT22;2202;50.866;12.750;2023-11-19T00:28:48;4.30;96.60
4376;DHT22;2202;50.866;12.750;2023-11-19T00:31:14;4.30;96.70
4376;DHT22;2202;50.866;12.750;2023-11-19T00:33:42;4.30;96.80
4376;DHT22;2202;50.866;12.750;2023-11-19T00:36:10;4.30;96.80
4376;DHT22;2202;50.866;12.750;2023-11-19T00:38:37;4.40;97.00
4376;DHT22;2202;50.866;12.750;2023-11-19T00:41:04;4.40;96.90
4376;DHT22;2202;50.866;12.750;2023-11-19T00:43:31;4.40;96.90
4376;DHT22;2202;50.866;12.750;2023-11-19T00:45:58;4.40;97.00
4376;DHT22;2202;50.866;12.750;2023-11-19T00:48:26;4.40;97.10
4376;DHT22;2202;50.866;12.750;2023-11-19T00:50:53;4.40;97.20
4376;DHT22;2202;50.866;12.750;2023-11-19T00:53:21;4.40;97.40
4376;DHT22;2202;50.866;12.750;2023-11-19T00:55:48;4.40;97.40
4376;DHT22;2202;50.866;12.750;2023-11-19T00:58:15;4.40;97.50
4376;DHT22;2202;50.866;12.750;2023-11-19T01:00:43;4.50;97.70
4376;DHT22;2202;50.866;12.750;2023-11-19T01:03:10;4.40;97.70
4376;DHT22;2202;50.866;12.750;2023-11-19T01:05:38;4.40;98.00
4376;DHT22;2202;50.866;12.750;2023-11-19T01:08:04;4.40;98.20
4376;DHT22;2202;50.866;12.750;2023-11-19T01:10:33;4.40;98.20
4376;DHT22;2202;50.866;12.750;2023-11-19T01:13:00;4.50;98.30
4376;DHT22;2202;50.866;12.750;2023-11-19T01:15:29;4.50;98.10
4376;DHT22;2202;50.866;12.750;2023-11-19T01:17:55;4.40;98.30
4376;DHT22;2202;50.866;12.750;2023-11-19T01:20:22;4.40;98.30
4376;DHT22;2202;50.866;12.750;2023-11-19T01:22:49;4.40;98.50
4376;DHT22;2202;50.866;12.750;2023-11-19T01:25:16;4.40;98.70
4376;DHT22;2202;50.866;12.750;2023-11-19T01:27:44;4.40;98.50
4376;DHT22;2202;50.866;12.750;2023-11-19T01:30:12;4.40;98.60
4376;DHT22;2202;50.866;12.750;2023-11-19T01:32:39;4.40;98.50
4376;DHT22;2202;50.866;12.750;2023-11-19T01:35:07;4.40;98.60
4376;DHT22;2202;50.866;12.750;2023-11-19T01:37:34;4.50;98.80
4376;DHT22;2202;50.866;12.750;2023-11-19T01:40:01;4.50;98.60
4376;DHT22;2202;50.866;12.750;2023-11-19T01:42:29;4.50;98.50
4376;DHT22;2202;50.866;12.750;2023-11-19T01:45:01;4.50;98.60
4376;DHT22;2202;50.866;12.750;2023-11-19T01:47:29;4.50;98.70
4376;DHT22;2202;50.866;12.750;2023-11-19T01:49:56;4.50;98.30
4376;DHT22;2202;50.866;12.750;2023-11-19T01:52:24;4.60;98.40
4376;DHT22;2202;50.866;12.750;2023-11-19T01:54:52;4.60;98.10
4376;DHT22;2202;50.866;12.750;2023-11-19T01:57:21;4.60;98.10
4376;DHT22;2202;50.866;12.750;2023-11-19T01:59:49;4.50;97.90
4376;DHT22;2202;50.866;12.750;2023-11-19T02:02:19;4.60;98.00
4376;DHT22;2202;50.866;12.750;2023-11-19T02:04:46;4.60;97.70
4376;DHT22;2202;50.866;12.750;2023-11-19T02:07:14;4.60;97.80
4376;DHT22;2202;50.866;12.750;2023-11-19T02:09:43;4.70;97.60
4376;DHT22;2202;50.866;12.750;2023-11-19T02:12:10;4.70;97.60
4376;DHT22;2202;50.866;12.750;2023-11-19T02:14:37;4.70;97.80
4376;DHT22;2202;50.866;12.750;2023-11-19T02:17:04;4.80;97.80
4376;DHT22;2202;50.866;12.750;2023-11-19T02:19:33;4.80;97.60
4376;DHT22;2202;50.866;12.750;2023-11-19T02:21:59;4.80;97.70
4376;DHT22;2202;50.866;12.750;2023-11-19T02:24:29;4.80;97.70
4376;DHT22;2202;50.866;12.750;2023-11-19T02:27:01;4.80;97.90
4376;DHT22;2202;50.866;12.750;2023-11-19T02:29:32;4.70;98.10
4376;DHT22;2202;50.866;12.750;2023-11-19T02:32:00;4.70;98.40
4376;DHT22;2202;50.866;12.750;2023-11-19T02:34:28;4.80;98.40
4376;DHT22;2202;50.866;12.750;2023-11-19T02:36:55;4.80;98.50
4376;DHT22;2202;50.866;12.750;2023-11-19T02:39:22;4.80;98.50
4376;DHT22;2202;50.866;12.750;2023-11-19T02:41:49;4.80;98.50
4376;DHT22;2202;50.866;12.750;2023-11-19T02:44:18;4.80;98.40
4376;DHT22;2202;50.866;12.750;2023-11-19T02:46:46;4.80;98.70
4376;DHT22;2202;50.866;12.750;2023-11-19T02:49:14;4.80;98.90
4376;DHT22;2202;50.866;12.750;2023-11-19T02:51:41;4.80;99.10
4376;DHT22;2202;50.866;12.750;2023-11-19T02:54:08;4.80;99.10
4376;DHT22;2202;50.866;12.750;2023-11-19T02:56:35;4.80;99.30
4376;DHT22;2202;50.866;12.750;2023-11-19T02:59:04;4.90;99.20
4376;DHT22;2202;50.866;12.750;2023-11-19T03:01:40;4.90;99.20
4376;DHT22;2202;50.866;12.750;2023-11-19T03:04:10;4.90;99.20
4376;DHT22;2202;50.866;12.750;2023-11-19T03:06:38;5.00;99.00
4376;DHT22;2202;50.866;12.750;2023-11-19T03:09:05;5.00;99.00
4376;DHT22;2202;50.866;12.750;2023-11-19T03:11:35;5.10;99.00
4376;DHT22;2202;50.866;12.750;2023-11-19T03:14:02;5.10;98.80
4376;DHT22;2202;50.866;12.750;2023-11-19T03:16:29;5.10;98.80
4376;DHT22;2202;50.866;12.750;2023-11-19T03:18:56;5.20;98.70
4376;DHT22;2202;50.866;12.750;2023-11-19T03:21:29;5.20;98.90
4376;DHT22;2202;50.866;12.750;2023-11-19T03:23:57;5.20;98.80
4376;DHT22;2202;50.866;12.750;2023-11-19T03:26:26;5.20;98.80
4376;DHT22;2202;50.866;12.750;2023-11-19T03:28:53;5.30;98.70
4376;DHT22;2202;50.866;12.750;2023-11-19T03:31:20;5.30;98.70
4376;DHT22;2202;50.866;12.750;2023-11-19T03:33:46;5.30;98.60
4376;DHT22;2202;50.866;12.750;2023-11-19T03:36:13;5.30;98.60
4376;DHT22;2202;50.866;12.750;2023-11-19T03:38:41;5.30;98.60
4376;DHT22;2202;50.866;12.750;2023-11-19T03:41:11;5.30;98.70
4376;DHT22;2202;50.866;12.750;2023-11-19T03:43:39;5.40;98.90
4376;DHT22;2202;50.866;12.750;2023-11-19T03:46:16;5.40;98.70
4376;DHT22;2202;50.866;12.750;2023-11-19T03:48:43;5.40;98.90
4376;DHT22;2202;50.866;12.750;2023-11-19T03:51:10;5.40;98.80
4376;DHT22;2202;50.866;12.750;2023-11-19T03:53:42;5.50;98.80
4376;DHT22;2202;50.866;12.750;2023-11-19T03:56:09;5.50;98.80
4376;DHT22;2202;50.866;12.750;2023-11-19T03:58:37;5.50;98.90
4376;DHT22;2202;50.866;12.750;2023-11-19T04:01:04;5.50;99.10
4376;DHT22;2202;50.866;12.750;2023-11-19T04:03:31;5.60;99.10
4376;DHT22;2202;50.866;12.750;2023-11-19T04:05:58;5.60;98.80
4376;DHT22;2202;50.866;12.750;2023-11-19T04:08:25;5.70;98.70
4376;DHT22;2202;50.866;12.750;2023-11-19T04:10:53;5.70;98.60
4376;DHT22;2202;50.866;12.750;2023-11-19T04:13:20;5.70;98.60
4376;DHT22;2202;50.866;12.750;2023-11-19T04:15:49;5.80;98.50
4376;DHT22;2202;50.866;12.750;2023-11-19T04:18:16;5.80;98.40
4376;DHT22;2202;50.866;12.750;2023-11-19T04:20:42;5.90;98.20
4376;DHT22;2202;50.866;12.750;2023-11-19T04:23:09;5.90;98.40
4376;DHT22;2202;50.866;12.750;2023-11-19T04:25:37;5.90;98.50
4376;DHT22;2202;50.866;12.750;2023-11-19T04:28:05;5.90;98.60
4376;DHT22;2202;50.866;12.750;2023-11-19T04:30:32;5.90;98.80
4376;DHT22;2202;50.866;12.750;2023-11-19T04:32:58;5.90;98.90
4376;DHT22;2202;50.866;12.750;2023-11-19T04:35:25;5.90;98.90
4376;DHT22;2202;50.866;12.750;2023-11-19T04:37:52;5.90;98.80
4376;DHT22;2202;50.866;12.750;2023-11-19T04:40:19;5.90;99.00
4376;DHT22;2202;50.866;12.750;2023-11-19T04:42:48;5.90;99.00
4376;DHT22;2202;50.866;12.750;2023-11-19T04:45:16;6.00;99.20
4376;DHT22;2202;50.866;12.750;2023-11-19T04:47:43;6.00;99.40
4376;DHT22;2202;50.866;12.750;2023-11-19T04:50:10;6.00;99.20
4376;DHT22;2202;50.866;12.750;2023-11-19T04:52:37;5.90;99.50
4376;DHT22;2202;50.866;12.750;2023-11-19T04:55:06;5.90;99.80
4376;DHT22;2202;50.866;12.750;2023-11-19T04:57:33;5.90;99.90
4376;DHT22;2202;50.866;12.750;2023-11-19T05:00:00;5.90;99.90
4376;DHT22;2202;50.866;12.750;2023-11-19T05:02:28;5.90;99.90
4376;DHT22;2202;50.866;12.750;2023-11-19T05:04:55;5.90;99.90
4376;DHT22;2202;50.866;12.750;2023-11-19T05:07:21;5.90;99.90
4376;DHT22;2202;50.866;12.750;2023-11-19T05:09:48;5.90;99.90
4376;DHT22;2202;50.866;12.750;2023-11-19T05:12:15;5.90;99.90
4376;DHT22;2202;50.866;12.750;2023-11-19T05:14:42;5.90;99.90
4376;DHT22;2202;50.866;12.750;2023-11-19T05:17:14;6.00;99.90
4376;DHT22;2202;50.866;12.750;2023-11-19T05:19:44;6.10;99.70
4376;DHT22;2202;50.866;12.750;2023-11-19T05:22:11;6.10;99.60
4376;DHT22;2202;50.866;12.750;2023-11-19T05:24:39;6.10;99.60
4376;DHT22;2202;50.866;12.750;2023-11-19T05:27:06;6.10;99.80
4376;DHT22;2202;50.866;12.750;2023-11-19T05:29:33;6.10;99.60
4376;DHT22;2202;50.866;12.750;2023-11-19T05:32:00;6.10;99.70
4376;DHT22;2202;50.866;12.750;2023-11-19T05:34:27;6.10;99.80
4376;DHT22;2202;50.866;12.750;2023-11-19T05:36:55;6.10;99.90
4376;DHT22;2202;50.866;12.750;2023-11-19T05:39:22;6.20;99.90
4376;DHT22;2202;50.866;12.750;2023-11-19T05:41:49;6.20;99.90
4376;DHT22;2202;50.866;12.750;2023-11-19T05:44:17;6.30;99.70
4376;DHT22;2202;50.866;12.750;2023-11-19T05:46:44;6.30;99.90
4376;DHT22;2202;50.866;12.750;2023-11-19T05:49:11;6.40;99.90
4376;DHT22;2202;50.866;12.750;2023-11-19T05:51:39;6.40;99.90
4376;DHT22;2202;50.866;12.750;2023-11-19T05:54:09;6.40;99.90
4376;DHT22;2202;50.866;12.750;2023-11-19T05:56:36;6.40;99.90
4376;DHT22;2202;50.866;12.750;2023-11-19T05:59:03;6.40;99.90
4376;DHT22;2202;50.866;12.750;2023-11-19T06:01:33;6.50;99.90
4376;DHT22;2202;50.866;12.750;2023-11-19T06:04:01;6.60;99.90
4376;DHT22;2202;50.866;12.750;2023-11-19T06:06:28;6.60;99.90
4376;DHT22;2202;50.866;12.750;2023-11-19T06:08:55;6.60;99.90
4376;DHT22;2202;50.866;12.750;2023-11-19T06:11:23;6.50;99.90
4376;DHT22;2202;50.866;12.750;2023-11-19T06:13:52;6.50;99.90
4376;DHT22;2202;50.866;12.750;2023-11-19T06:16:19;6.50;99.90
4376;DHT22;2202;50.866;12.750;2023-11-19T06:18:46;6.50;99.90
4376;DHT22;2202;50.866;12.750;2023-11-19T06:21:13;6.60;99.90
4376;DHT22;2202;50.866;12.750;2023-11-19T06:23:39;6.60;99.90
4376;DHT22;2202;50.866;12.750;2023-11-19T06:26:07;6.60;99.90
4376;DHT22;2202;50.866;12.750;2023-11-19T06:28:36;6.70;99.90
4376;DHT22;2202;50.866;12.750;2023-11-19T06:31:04;6.70;99.90
4376;DHT22;2202;50.866;12.750;2023-11-19T06:33:31;6.70;99.90
4376;DHT22;2202;50.866;12.750;2023-11-19T06:35:59;6.70;99.90
4376;DHT22;2202;50.866;12.750;2023-11-19T06:38:26;6.80;99.90
4376;DHT22;2202;50.866;12.750;2023-11-19T06:40:52;6.80;99.90
4376;DHT22;2202;50.866;12.750;2023-11-19T06:43:19;6.90;99.90
4376;DHT22;2202;50.866;12.750;2023-11-19T06:45:48;6.90;99.90
4376;DHT22;2202;50.866;12.750;2023-11-19T06:48:15;6.90;99.90
4376;DHT22;2202;50.866;12.750;2023-11-19T06:50:42;6.90;99.90
4376;DHT22;2202;50.866;12.750;2023-11-19T06:53:09;7.00;99.90
4376;DHT22;2202;50.866;12.750;2023-11-19T06:55:36;7.00;99.90
4376;DHT22;2202;50.866;12.750;2023-11-19T06:58:03;7.00;99.70
4376;DHT22;2202;50.866;12.750;2023-11-19T07:00:30;7.00;99.80
4376;DHT22;2202;50.866;12.750;2023-11-19T07:02:59;7.10;99.80
4376;DHT22;2202;50.866;12.750;2023-11-19T07:08:01;7.20;99.50
4376;DHT22;2202;50.866;12.750;2023-11-19T07:10:28;7.20;99.20
4376;DHT22;2202;50.866;12.750;2023-11-19T07:12:56;7.30;99.10
4376;DHT22;2202;50.866;12.750;2023-11-19T07:15:23;7.30;98.80
4376;DHT22;2202;50.866;12.750;2023-11-19T07:17:51;7.40;98.70
4376;DHT22;2202;50.866;12.750;2023-11-19T07:20:21;7.40;98.60
4376;DHT22;2202;50.866;12.750;2023-11-19T07:22:48;7.40;98.60
4376;DHT22;2202;50.866;12.750;2023-11-19T07:25:14;7.50;98.60
4376;DHT22;2202;50.866;12.750;2023-11-19T07:27:41;7.50;98.40
4376;DHT22;2202;50.866;12.750;2023-11-19T07:30:09;7.60;98.30
4376;DHT22;2202;50.866;12.750;2023-11-19T07:32:36;7.60;98.00
4376;DHT22;2202;50.866;12.750;2023-11-19T07:35:05;7.60;97.90
4376;DHT22;2202;50.866;12.750;2023-11-19T07:37:34;7.70;97.90
4376;DHT22;2202;50.866;12.750;2023-11-19T07:40:01;7.60;98.00
4376;DHT22;2202;50.866;12.750;2023-11-19T07:42:28;7.70;98.00
4376;DHT22;2202;50.866;12.750;2023-11-19T07:44:55;7.70;97.80
4376;DHT22;2202;50.866;12.750;2023-11-19T07:47:23;7.70;97.70
4376;DHT22;2202;50.866;12.750;2023-11-19T07:49:50;7.70;97.70
4376;DHT22;2202;50.866;12.750;2023-11-19T07:52:17;7.70;97.60
4376;DHT22;2202;50.866;12.750;2023-11-19T07:54:45;7.70;97.60
4376;DHT22;2202;50.866;12.750;2023-11-19T07:57:12;7.70;97.70
4376;DHT22;2202;50.866;12.750;2023-11-19T07:59:39;7.80;97.80
4376;DHT22;2202;50.866;12.750;2023-11-19T08:02:06;7.90;97.90
4376;DHT22;2202;50.866;12.750;2023-11-19T08:04:33;8.20;97.50
4376;DHT22;2202;50.866;12.750;2023-11-19T08:07:00;8.70;96.20
4376;DHT22;2202;50.866;12.750;2023-11-19T08:09:27;8.70;95.50
4376;DHT22;2202;50.866;12.750;2023-11-19T08:11:55;8.50;95.50
4376;DHT22;2202;50.866;12.750;2023-11-19T08:14:22;8.40;96.50
4376;DHT22;2202;50.866;12.750;2023-11-19T08:16:49;8.40;96.50
4376;DHT22;2202;50.866;12.750;2023-11-19T08:19:16;8.40;96.70
4376;DHT22;2202;50.866;12.750;2023-11-19T08:21:43;8.50;96.80
4376;DHT22;2202;50.866;12.750;2023-11-19T08:24:10;8.50;96.70
4376;DHT22;2202;50.866;12.750;2023-11-19T08:26:37;8.50;96.20
4376;DHT22;2202;50.866;12.750;2023-11-19T08:29:05;8.50;96.40
4376;DHT22;2202;50.866;12.750;2023-11-19T08:31:32;8.40;97.00
4376;DHT22;2202;50.866;12.750;2023-11-19T08:33:59;8.40;97.20
4376;DHT22;2202;50.866;12.750;2023-11-19T08:36:26;8.50;96.80
4376;DHT22;2202;50.866;12.750;2023-11-19T08:38:53;8.60;96.70
4376;DHT22;2202;50.866;12.750;2023-11-19T08:41:21;8.60;96.40
4376;DHT22;2202;50.866;12.750;2023-11-19T08:43:48;8.60;96.50
4376;DHT22;2202;50.866;12.750;2023-11-19T08:46:17;8.60;96.70
4376;DHT22;2202;50.866;12.750;2023-11-19T08:48:44;8.70;96.50
4376;DHT22;2202;50.866;12.750;2023-11-19T08:51:11;8.70;96.40
4376;DHT22;2202;50.866;12.750;2023-11-19T08:53:38;8.70;96.50
4376;DHT22;2202;50.866;12.750;2023-11-19T08:56:05;8.70;96.50
4376;DHT22;2202;50.866;12.750;2023-11-19T08:58:32;8.70;96.60
4376;DHT22;2202;50.866;12.750;2023-11-19T09:00:59;8.80;96.40
4376;DHT22;2202;50.866;12.750;2023-11-19T09:03:27;8.90;96.20
4376;DHT22;2202;50.866;12.750;2023-11-19T09:05:55;8.90;96.40
4376;DHT22;2202;50.866;12.750;2023-11-19T09:08:22;8.90;96.90
4376;DHT22;2202;50.866;12.750;2023-11-19T09:10:49;8.90;96.20
4376;DHT22;2202;50.866;12.750;2023-11-19T09:13:16;8.90;96.00
4376;DHT22;2202;50.866;12.750;2023-11-19T09:15:43;9.00;96.00
4376;DHT22;2202;50.866;12.750;2023-11-19T09:18:10;9.00;96.00
4376;DHT22;2202;50.866;12.750;2023-11-19T09:20:38;9.00;95.90
4376;DHT22;2202;50.866;12.750;2023-11-19T09:23:05;9.10;96.20
4376;DHT22;2202;50.866;12.750;2023-11-19T09:25:32;9.10;96.00
4376;DHT22;2202;50.866;12.750;2023-11-19T09:27:58;9.20;96.00
4376;DHT22;2202;50.866;12.750;2023-11-19T09:30:25;9.30;95.90
4376;DHT22;2202;50.866;12.750;2023-11-19T09:32:52;9.40;95.60
4376;DHT22;2202;50.866;12.750;2023-11-19T09:35:19;9.50;95.40
4376;DHT22;2202;50.866;12.750;2023-11-19T09:37:47;9.50;95.20
4376;DHT22;2202;50.866;12.750;2023-11-19T09:40:14;9.50;95.00
4376;DHT22;2202;50.866;12.750;2023-11-19T09:42:44;9.40;95.40
4376;DHT22;2202;50.866;12.750;2023-11-19T09:45:14;9.50;95.30
4376;DHT22;2202;50.866;12.750;2023-11-19T09:47:43;9.50;95.40
4376;DHT22;2202;50.866;12.750;2023-11-19T09:50:14;9.50;95.60
4376;DHT22;2202;50.866;12.750;2023-11-19T09:52:42;9.50;95.70
4376;DHT22;2202;50.866;12.750;2023-11-19T09:55:10;9.60;95.60
4376;DHT22;2202;50.866;12.750;2023-11-19T09:57:38;9.60;95.80
4376;DHT22;2202;50.866;12.750;2023-11-19T10:00:07;9.50;96.50
4376;DHT22;2202;50.866;12.750;2023-11-19T10:02:36;9.40;97.10
4376;DHT22;2202;50.866;12.750;2023-11-19T10:05:06;9.40;97.60
4376;DHT22;2202;50.866;12.750;2023-11-19T10:07:33;9.30;98.10
4376;DHT22;2202;50.866;12.750;2023-11-19T10:10:01;9.30;98.20
4376;DHT22;2202;50.866;12.750;2023-11-19T10:12:31;9.30;98.50
4376;DHT22;2202;50.866;12.750;2023-11-19T10:14:58;9.30;98.70
4376;DHT22;2202;50.866;12.750;2023-11-19T10:17:27;9.30;98.80
4376;DHT22;2202;50.866;12.750;2023-11-19T10:19:55;9.30;98.60
4376;DHT22;2202;50.866;12.750;2023-11-19T10:22:22;9.30;98.80
4376;DHT22;2202;50.866;12.750;2023-11-19T10:24:49;9.50;98.50
4376;DHT22;2202;50.866;12.750;2023-11-19T10:27:17;9.50;97.90
4376;DHT22;2202;50.866;12.750;2023-11-19T10:29:46;9.60;97.80
4376;DHT22;2202;50.866;12.750;2023-11-19T10:32:14;9.70;97.40
4376;DHT22;2202;50.866;12.750;2023-11-19T10:34:41;9.70;97.00
4376;DHT22;2202;50.866;12.750;2023-11-19T10:37:08;9.70;96.50
4376;DHT22;2202;50.866;12.750;2023-11-19T10:39:52;9.80;96.40
4376;DHT22;2202;50.866;12.750;2023-11-19T10:42:20;9.90;95.50
4376;DHT22;2202;50.866;12.750;2023-11-19T10:44:48;10.00;95.60
4376;DHT22;2202;50.866;12.750;2023-11-19T10:47:15;10.00;95.20
4376;DHT22;2202;50.866;12.750;2023-11-19T10:49:45;10.10;94.80
4376;DHT22;2202;50.866;12.750;2023-11-19T10:52:16;10.20;94.60
4376;DHT22;2202;50.866;12.750;2023-11-19T10:54:44;10.20;94.40
4376;DHT22;2202;50.866;12.750;2023-11-19T10:57:20;10.30;93.70
4376;DHT22;2202;50.866;12.750;2023-11-19T10:59:49;10.40;93.30
4376;DHT22;2202;50.866;12.750;2023-11-19T11:02:21;10.40;93.00
4376;DHT22;2202;50.866;12.750;2023-11-19T11:04:50;10.50;91.90
4376;DHT22;2202;50.866;12.750;2023-11-19T11:07:21;10.60;91.40
4376;DHT22;2202;50.866;12.750;2023-11-19T11:09:51;10.70;90.70
4376;DHT22;2202;50.866;12.750;2023-11-19T11:12:22;10.80;91.00
4376;DHT22;2202;50.866;12.750;2023-11-19T11:14:51;10.80;90.60
4376;DHT22;2202;50.866;12.750;2023-11-19T11:17:20;10.90;91.00
4376;DHT22;2202;50.866;12.750;2023-11-19T11:19:50;11.00;90.60
4376;DHT22;2202;50.866;12.750;2023-11-19T11:22:18;11.10;90.70
4376;DHT22;2202;50.866;12.750;2023-11-19T11:27:59;11.10;88.80
4376;DHT22;2202;50.866;12.750;2023-11-19T11:30:43;11.10;89.00
4376;DHT22;2202;50.866;12.750;2023-11-19T11:33:26;11.10;89.00
4376;DHT22;2202;50.866;12.750;2023-11-19T11:35:59;11.10;88.00
4376;DHT22;2202;50.866;12.750;2023-11-19T11:38:36;11.00;87.00
4376;DHT22;2202;50.866;12.750;2023-11-19T11:41:18;10.90;87.80
4376;DHT22;2202;50.866;12.750;2023-11-19T11:43:46;11.00;87.80
4376;DHT22;2202;50.866;12.750;2023-11-19T11:49:25;10.90;86.40
4376;DHT22;2202;50.866;12.750;2023-11-19T11:51:59;10.90;85.60
4376;DHT22;2202;50.866;12.750;2023-11-19T11:54:27;10.90;85.00
4376;DHT22;2202;50.866;12.750;2023-11-19T11:57:06;10.90;85.00
4376;DHT22;2202;50.866;12.750;2023-11-19T11:59:46;10.80;84.40
4376;DHT22;2202;50.866;12.750;2023-11-19T12:02:14;10.80;84.80
4376;DHT22;2202;50.866;12.750;2023-11-19T12:04:46;10.80;83.40
4376;DHT22;2202;50.866;12.750;2023-11-19T12:07:16;10.80;84.40
4376;DHT22;2202;50.866;12.750;2023-11-19T12:09:48;10.80;84.60
4376;DHT22;2202;50.866;12.750;2023-11-19T12:12:22;10.70;85.00
4376;DHT22;2202;50.866;12.750;2023-11-19T12:15:04;10.70;85.80
4376;DHT22;2202;50.866;12.750;2023-11-19T12:17:48;10.80;87.00
4376;DHT22;2202;50.866;12.750;2023-11-19T12:20:21;10.90;87.60
4376;DHT22;2202;50.866;12.750;2023-11-19T12:22:49;11.00;87.40
4376;DHT22;2202;50.866;12.750;2023-11-19T12:25:17;11.10;88.00
4376;DHT22;2202;50.866;12.750;2023-11-19T12:27:46;11.20;86.80
4376;DHT22;2202;50.866;12.750;2023-11-19T12:30:17;11.20;84.80
4376;DHT22;2202;50.866;12.750;2023-11-19T12:32:45;11.30;84.00
4376;DHT22;2202;50.866;12.750;2023-11-19T12:35:12;11.30;84.00
4376;DHT22;2202;50.866;12.750;2023-11-19T12:37:45;11.30;83.80
4376;DHT22;2202;50.866;12.750;2023-11-19T12:40:14;11.20;82.60
4376;DHT22;2202;50.866;12.750;2023-11-19T12:42:41;11.20;83.20
4376;DHT22;2202;50.866;12.750;2023-11-19T12:45:08;11.20;83.40
4376;DHT22;2202;50.866;12.750;2023-11-19T12:47:36;11.20;84.00
4376;DHT22;2202;50.866;12.750;2023-11-19T12:50:04;11.20;84.60
4376;DHT22;2202;50.866;12.750;2023-11-19T12:52:32;11.20;85.40
4376;DHT22;2202;50.866;12.750;2023-11-19T12:55:01;11.30;83.20
4376;DHT22;2202;50.866;12.750;2023-11-19T12:57:38;11.30;83.40
4376;DHT22;2202;50.866;12.750;2023-11-19T13:00:06;11.30;83.00
4376;DHT22;2202;50.866;12.750;2023-11-19T13:02:45;11.30;82.40
4376;DHT22;2202;50.866;12.750;2023-11-19T13:05:26;11.30;82.60
4376;DHT22;2202;50.866;12.750;2023-11-19T13:08:04;11.20;81.40
4376;DHT22;2202;50.866;12.750;2023-11-19T13:10:33;11.20;82.20
4376;DHT22;2202;50.866;12.750;2023-11-19T13:13:04;11.20;82.00
4376;DHT22;2202;50.866;12.750;2023-11-19T13:15:32;11.20;81.80
4376;DHT22;2202;50.866;12.750;2023-11-19T13:17:59;11.10;81.40
4376;DHT22;2202;50.866;12.750;2023-11-19T13:20:26;11.00;80.60
4376;DHT22;2202;50.866;12.750;2023-11-19T13:22:57;10.90;81.00
4376;DHT22;2202;50.866;12.750;2023-11-19T13:25:25;10.80;80.40
4376;DHT22;2202;50.866;12.750;2023-11-19T13:27:53;10.80;80.40
4376;DHT22;2202;50.866;12.750;2023-11-19T13:30:20;10.80;81.40
4376;DHT22;2202;50.866;12.750;2023-11-19T13:32:48;10.90;80.20
4376;DHT22;2202;50.866;12.750;2023-11-19T13:35:15;10.90;80.40
4376;DHT22;2202;50.866;12.750;2023-11-19T13:37:42;11.00;79.60
4376;DHT22;2202;50.866;12.750;2023-11-19T13:40:10;10.90;79.20
4376;DHT22;2202;50.866;12.750;2023-11-19T13:42:39;10.80;79.60
4376;DHT22;2202;50.866;12.750;2023-11-19T13:45:09;10.80;78.80
4376;DHT22;2202;50.866;12.750;2023-11-19T13:47:38;10.70;79.00
4376;DHT22;2202;50.866;12.750;2023-11-19T13:50:08;10.60;80.00
4376;DHT22;2202;50.866;12.750;2023-11-19T13:52:35;10.50;80.60
4376;DHT22;2202;50.866;12.750;2023-11-19T13:55:04;10.50;80.80
4376;DHT22;2202;50.866;12.750;2023-11-19T13:57:31;10.50;81.40
4376;DHT22;2202;50.866;12.750;2023-11-19T13:59:59;10.50;82.00
4376;DHT22;2202;50.866;12.750;2023-11-19T14:02:28;10.40;82.80
4376;DHT22;2202;50.866;12.750;2023-11-19T14:04:54;10.40;83.40
4376;DHT22;2202;50.866;12.750;2023-11-19T14:07:21;10.40;82.60
4376;DHT22;2202;50.866;12.750;2023-11-19T14:09:48;10.40;83.00
4376;DHT22;2202;50.866;12.750;2023-11-19T14:12:15;10.40;81.60
4376;DHT22;2202;50.866;12.750;2023-11-19T14:14:43;10.40;82.40
4376;DHT22;2202;50.866;12.750;2023-11-19T14:17:09;10.40;82.00
4376;DHT22;2202;50.866;12.750;2023-11-19T14:19:38;10.30;82.60
4376;DHT22;2202;50.866;12.750;2023-11-19T14:22:05;10.20;82.60
4376;DHT22;2202;50.866;12.750;2023-11-19T14:24:32;10.20;82.80
4376;DHT22;2202;50.866;12.750;2023-11-19T14:26:59;10.20;83.40
4376;DHT22;2202;50.866;12.750;2023-11-19T14:29:26;10.20;83.80
4376;DHT22;2202;50.866;12.750;2023-11-19T14:31:54;10.10;83.80
4376;DHT22;2202;50.866;12.750;2023-11-19T14:34:21;10.20;84.00
4376;DHT22;2202;50.866;12.750;2023-11-19T14:36:49;10.20;84.00
4376;DHT22;2202;50.866;12.750;2023-11-19T14:39:16;10.20;84.40
4376;DHT22;2202;50.866;12.750;2023-11-19T14:41:42;10.20;85.20
4376;DHT22;2202;50.866;12.750;2023-11-19T14:44:09;10.20;86.00
4376;DHT22;2202;50.866;12.750;2023-11-19T14:46:36;10.10;86.40
4376;DHT22;2202;50.866;12.750;2023-11-19T14:49:03;10.00;87.20
4376;DHT22;2202;50.866;12.750;2023-11-19T14:51:30;10.00;87.60
4376;DHT22;2202;50.866;12.750;2023-11-19T14:53:58;10.00;87.80
4376;DHT22;2202;50.866;12.750;2023-11-19T14:56:25;10.00;87.60
4376;DHT22;2202;50.866;12.750;2023-11-19T14:58:52;10.00;87.60
4376;DHT22;2202;50.866;12.750;2023-11-19T15:01:19;10.00;87.20
4376;DHT22;2202;50.866;12.750;2023-11-19T15:03:46;9.90;87.40
4376;DHT22;2202;50.866;12.750;2023-11-19T15:06:12;9.90;87.40
4376;DHT22;2202;50.866;12.750;2023-11-19T15:08:40;9.80;87.60
4376;DHT22;2202;50.866;12.750;2023-11-19T15:11:08;9.90;87.20
4376;DHT22;2202;50.866;12.750;2023-11-19T15:13:37;9.90;87.20
4376;DHT22;2202;50.866;12.750;2023-11-19T15:16:07;9.80;87.20
4376;DHT22;2202;50.866;12.750;2023-11-19T15:18:36;9.80;87.20
4376;DHT22;2202;50.866;12.750;2023-11-19T15:21:03;9.70;87.80
4376;DHT22;2202;50.866;12.750;2023-11-19T15:23:30;9.70;87.80
4376;DHT22;2202;50.866;12.750;2023-11-19T15:25:57;9.60;88.20
4376;DHT22;2202;50.866;12.750;2023-11-19T15:28:25;9.60;87.80
4376;DHT22;2202;50.866;12.750;2023-11-19T15:30:52;9.60;87.80
4376;DHT22;2202;50.866;12.750;2023-11-19T15:33:19;9.60;87.80
4376;DHT22;2202;50.866;12.750;2023-11-19T15:35:45;9.60;87.20
4376;DHT22;2202;50.866;12.750;2023-11-19T15:38:13;9.60;87.00
4376;DHT22;2202;50.866;12.750;2023-11-19T15:40:40;9.60;86.00
4376;DHT22;2202;50.866;12.750;2023-11-19T15:43:08;9.60;85.20
4376;DHT22;2202;50.866;12.750;2023-11-19T15:45:36;9.60;85.00
4376;DHT22;2202;50.866;12.750;2023-11-19T15:48:05;9.60;85.00
4376;DHT22;2202;50.866;12.750;2023-11-19T15:50:32;9.60;84.00
4376;DHT22;2202;50.866;12.750;2023-11-19T15:52:59;9.60;84.00
4376;DHT22;2202;50.866;12.750;2023-11-19T15:55:27;9.60;83.60
4376;DHT22;2202;50.866;12.750;2023-11-19T15:57:54;9.40;83.40
4376;DHT22;2202;50.866;12.750;2023-11-19T16:00:21;9.40;83.40
4376;DHT22;2202;50.866;12.750;2023-11-19T16:02:49;9.40;83.00
4376;DHT22;2202;50.866;12.750;2023-11-19T16:05:16;9.40;82.60
4376;DHT22;2202;50.866;12.750;2023-11-19T16:07:43;9.30;82.40
4376;DHT22;2202;50.866;12.750;2023-11-19T16:10:10;9.30;82.80
4376;DHT22;2202;50.866;12.750;2023-11-19T16:12:38;9.30;82.60